createdAt,value
2022-12-17T00:01:53.484Z,13.97
2022-12-17T00:04:39.649Z,14.63
2022-12-17T00:07:26.158Z,14.70
2022-12-17T00:10:11.787Z,13.17
2022-12-17T00:12:57.625Z,16.43
2022-12-17T00:15:43.909Z,13.83
2022-12-17T00:18:31.135Z,14.17
2022-12-17T00:21:19.408Z,14.33
2022-12-17T00:24:06.242Z,12.93
2022-12-17T00:26:52.885Z,14.53
2022-12-17T00:29:40.479Z,15.17
2022-12-17T00:32:28.367Z,13.67
2022-12-17T00:35:14.250Z,13.27
2022-12-17T00:38:01.513Z,12.30
2022-12-17T00:40:47.610Z,13.77
2022-12-17T00:43:34.187Z,14.10
2022-12-17T00:46:20.235Z,13.27
2022-12-17T00:49:07.623Z,12.27
2022-12-17T00:51:54.325Z,13.73
2022-12-17T00:54:40.491Z,12.50
2022-12-17T00:57:26.319Z,13.13
2022-12-17T01:00:13.093Z,11.67
2022-12-17T01:02:58.887Z,10.53
2022-12-17T01:05:45.497Z,12.00
2022-12-17T01:08:34.330Z,12.37
2022-12-17T01:11:23.089Z,11.43
2022-12-17T01:14:09.758Z,12.57
2022-12-17T01:16:56.596Z,11.47
2022-12-17T01:19:42.764Z,13.23
2022-12-17T01:22:29.783Z,11.73
2022-12-17T01:25:15.518Z,8.97
2022-12-17T01:28:01.162Z,11.23
2022-12-17T01:30:46.922Z,11.23
2022-12-17T01:33:32.642Z,10.97
2022-12-17T01:36:19.304Z,10.77
2022-12-17T01:39:05.355Z,10.03
2022-12-17T01:41:51.649Z,10.60
2022-12-17T01:45:06.227Z,10.07
2022-12-17T01:48:05.705Z,10.57
2022-12-17T01:50:56.979Z,11.83
2022-12-17T01:53:51.340Z,10.40
2022-12-17T01:56:38.873Z,11.47
2022-12-17T01:59:27.543Z,10.90
2022-12-17T02:02:14.614Z,11.10
2022-12-17T02:05:02.175Z,8.93
2022-12-17T02:08:25.763Z,8.50
2022-12-17T02:11:58.326Z,10.10
2022-12-17T02:14:52.702Z,8.73
2022-12-17T02:17:44.607Z,8.87
2022-12-17T02:20:49.853Z,8.50
2022-12-17T02:24:00.828Z,7.70
2022-12-17T02:27:04.741Z,8.17
2022-12-17T02:30:14.948Z,8.60
2022-12-17T02:33:05.290Z,8.67
2022-12-17T02:36:00.033Z,10.80
2022-12-17T02:38:49.699Z,9.73
2022-12-17T02:41:46.878Z,7.60
2022-12-17T02:44:38.977Z,7.17
2022-12-17T02:47:29.815Z,7.77
2022-12-17T02:50:16.503Z,7.63
2022-12-17T02:53:07.178Z,8.70
2022-12-17T02:55:55.295Z,8.37
2022-12-17T02:58:41.910Z,8.23
2022-12-17T03:01:28.956Z,8.17
2022-12-17T03:04:15.521Z,7.80
2022-12-17T03:07:02.939Z,8.60
2022-12-17T03:09:49.058Z,8.87
2022-12-17T03:12:35.508Z,9.07
2022-12-17T03:15:22.374Z,7.73
2022-12-17T03:18:08.516Z,8.97
2022-12-17T03:20:54.964Z,9.17
2022-12-17T03:23:41.291Z,9.57
2022-12-17T03:26:27.924Z,9.53
2022-12-17T03:29:34.566Z,10.03
2022-12-17T03:32:21.086Z,8.80
2022-12-17T03:35:07.793Z,9.70
2022-12-17T03:37:53.879Z,9.63
2022-12-17T03:40:40.022Z,7.20
2022-12-17T03:43:30.232Z,8.00
2022-12-17T03:46:16.415Z,9.50
2022-12-17T03:49:02.155Z,7.77
2022-12-17T03:51:48.518Z,10.23
2022-12-17T03:54:34.940Z,7.47
2022-12-17T03:57:21.656Z,9.43
2022-12-17T04:00:08.069Z,8.37
2022-12-17T04:03:00.549Z,8.43
2022-12-17T04:05:48.234Z,7.33
2022-12-17T04:08:34.536Z,9.60
2022-12-17T04:11:23.986Z,8.90
2022-12-17T04:14:10.263Z,8.90
2022-12-17T04:16:56.592Z,8.20
2022-12-17T04:19:43.275Z,8.23
2022-12-17T04:22:29.618Z,7.03
2022-12-17T04:25:15.467Z,8.83
2022-12-17T04:28:01.558Z,9.43
2022-12-17T04:30:47.947Z,7.77
2022-12-17T04:33:34.637Z,7.90
2022-12-17T04:36:21.558Z,7.37
2022-12-17T04:39:08.334Z,9.83
2022-12-17T04:41:54.934Z,7.80
2022-12-17T04:44:41.654Z,9.97
2022-12-17T04:47:28.306Z,9.33
2022-12-17T04:50:14.749Z,9.13
2022-12-17T04:53:04.219Z,8.77
2022-12-17T04:55:50.223Z,8.57
2022-12-17T04:58:36.719Z,9.47
2022-12-17T05:01:39.855Z,9.13
2022-12-17T05:04:26.401Z,10.13
2022-12-17T05:07:12.255Z,10.47
2022-12-17T05:09:58.944Z,8.60
2022-12-17T05:12:44.683Z,8.33
2022-12-17T05:15:35.023Z,8.77
2022-12-17T05:18:27.176Z,9.23
2022-12-17T05:21:14.328Z,7.43
2022-12-17T05:24:05.530Z,8.03
2022-12-17T05:26:52.071Z,8.77
2022-12-17T05:29:37.838Z,9.20
2022-12-17T05:32:23.648Z,9.10
2022-12-17T05:35:09.899Z,11.33
2022-12-17T05:37:56.385Z,7.33
2022-12-17T05:40:42.733Z,8.00
2022-12-17T05:43:31.700Z,8.40
2022-12-17T05:46:17.984Z,8.40
2022-12-17T05:49:04.546Z,11.10
2022-12-17T05:51:51.011Z,7.30
2022-12-17T05:54:37.903Z,9.10
2022-12-17T05:57:23.793Z,11.13
2022-12-17T06:00:10.143Z,7.63
2022-12-17T06:02:59.153Z,8.63
2022-12-17T06:05:46.437Z,7.57
2022-12-17T06:08:33.478Z,7.20
2022-12-17T06:11:20.095Z,8.13
2022-12-17T06:14:06.817Z,9.17
2022-12-17T06:16:54.082Z,7.67
2022-12-17T06:19:40.912Z,8.57
2022-12-17T06:22:27.823Z,9.87
2022-12-17T06:25:14.258Z,9.77
2022-12-17T06:28:00.041Z,7.73
2022-12-17T06:30:45.885Z,8.50
2022-12-17T06:33:32.319Z,9.43
2022-12-17T06:36:22.543Z,9.47
2022-12-17T06:39:09.944Z,9.87
2022-12-17T06:42:03.744Z,10.27
2022-12-17T06:44:51.409Z,11.60
2022-12-17T06:47:38.226Z,11.20
2022-12-17T06:50:25.310Z,8.97
2022-12-17T06:53:26.171Z,10.47
2022-12-17T06:56:12.005Z,9.07
2022-12-17T06:58:58.358Z,9.10
2022-12-17T07:01:45.046Z,10.40
2022-12-17T07:04:32.024Z,10.10
2022-12-17T07:07:18.402Z,11.67
2022-12-17T07:10:06.951Z,8.73
2022-12-17T07:12:56.935Z,9.93
2022-12-17T07:15:43.291Z,13.50
2022-12-17T07:18:29.347Z,13.40
2022-12-17T07:21:15.087Z,10.60
2022-12-17T07:24:01.209Z,11.60
2022-12-17T07:26:46.863Z,15.37
2022-12-17T07:29:33.213Z,14.43
2022-12-17T07:32:19.081Z,8.10
2022-12-17T07:35:05.104Z,13.07
2022-12-17T07:37:50.852Z,7.70
2022-12-17T07:40:36.487Z,7.93
2022-12-17T07:43:30.820Z,8.47
2022-12-17T07:46:16.622Z,10.23
2022-12-17T07:49:03.729Z,13.73
2022-12-17T07:51:49.977Z,12.43
2022-12-17T07:54:35.806Z,9.77
2022-12-17T07:57:22.118Z,14.87
2022-12-17T08:00:07.975Z,11.70
2022-12-17T08:02:53.976Z,13.87
2022-12-17T08:05:40.428Z,12.10
2022-12-17T08:08:31.662Z,12.17
2022-12-17T08:11:18.339Z,11.70
2022-12-17T08:14:04.160Z,15.67
2022-12-17T08:16:50.337Z,14.33
2022-12-17T08:19:36.064Z,11.17
2022-12-17T08:22:22.294Z,16.20
2022-12-17T08:25:08.044Z,17.07
2022-12-17T08:27:54.662Z,14.37
2022-12-17T08:30:57.437Z,18.00
2022-12-17T08:33:43.280Z,16.30
2022-12-17T08:36:29.772Z,14.77
2022-12-17T08:39:15.937Z,17.30
2022-12-17T08:42:04.545Z,19.90
2022-12-17T08:44:50.447Z,14.83
2022-12-17T08:47:36.218Z,11.30
2022-12-17T08:50:24.394Z,17.57
2022-12-17T08:53:21.195Z,15.30
2022-12-17T08:56:07.784Z,17.70
2022-12-17T08:58:58.686Z,13.17
2022-12-17T09:01:44.927Z,20.07
2022-12-17T09:04:30.464Z,20.57
2022-12-17T09:07:15.931Z,16.37
2022-12-17T09:10:01.426Z,15.80
2022-12-17T09:12:47.190Z,14.83
2022-12-17T09:15:33.100Z,17.37
2022-12-17T09:18:18.752Z,15.23
2022-12-17T09:21:13.840Z,14.27
2022-12-17T09:23:59.911Z,17.27
2022-12-17T09:26:45.390Z,11.43
2022-12-17T09:29:31.008Z,14.23
2022-12-17T09:32:16.556Z,14.20
2022-12-17T09:35:02.130Z,16.97
2022-12-17T09:37:47.651Z,17.87
2022-12-17T09:40:41.906Z,15.40
2022-12-17T09:43:40.938Z,13.60
2022-12-17T09:46:56.216Z,11.97
2022-12-17T09:49:45.832Z,15.40
2022-12-17T09:52:58.486Z,11.90
2022-12-17T09:56:11.347Z,14.03
2022-12-17T09:59:00.676Z,12.20
2022-12-17T10:01:54.492Z,12.77
2022-12-17T10:05:03.528Z,14.10
2022-12-17T10:07:57.379Z,17.20
2022-12-17T10:10:51.046Z,14.33
2022-12-17T10:13:42.535Z,18.57
2022-12-17T10:16:48.524Z,15.40
2022-12-17T10:19:47.609Z,17.03
2022-12-17T10:22:39.350Z,13.73
2022-12-17T10:25:42.020Z,15.03
2022-12-17T10:28:33.372Z,15.50
2022-12-17T10:31:20.717Z,13.77
2022-12-17T10:34:06.751Z,16.37
2022-12-17T10:36:52.476Z,12.73
2022-12-17T10:39:44.149Z,13.27
2022-12-17T10:42:57.768Z,14.27
2022-12-17T10:45:47.973Z,14.20
2022-12-17T10:48:47.088Z,13.03
2022-12-17T10:51:53.638Z,13.63
2022-12-17T10:54:49.027Z,15.83
2022-12-17T10:57:57.027Z,16.70
2022-12-17T11:00:50.335Z,16.00
2022-12-17T11:03:55.074Z,17.43
2022-12-17T11:06:53.171Z,18.97
2022-12-17T11:10:10.350Z,19.10
2022-12-17T11:13:04.993Z,20.53
2022-12-17T11:16:05.575Z,19.93
2022-12-17T11:19:17.155Z,18.43
2022-12-17T11:22:15.561Z,18.23
2022-12-17T11:25:21.679Z,21.67
2022-12-17T11:28:17.334Z,20.10
2022-12-17T11:31:14.700Z,20.20
2022-12-17T11:34:15.809Z,20.83
2022-12-17T11:37:35.970Z,22.50
2022-12-17T11:40:59.062Z,22.80
2022-12-17T11:44:06.435Z,20.33
2022-12-17T11:47:10.297Z,19.20
2022-12-17T11:50:21.648Z,19.93
2022-12-17T11:53:28.355Z,19.97
2022-12-17T11:56:44.200Z,18.97
2022-12-17T11:59:57.114Z,19.43
2022-12-17T12:03:12.410Z,23.50
2022-12-17T12:06:20.145Z,23.27
2022-12-17T12:09:30.640Z,21.73
2022-12-17T12:12:58.034Z,18.97
2022-12-17T12:16:12.479Z,25.97
2022-12-17T12:19:19.901Z,24.13
2022-12-17T12:22:28.846Z,18.87
2022-12-17T12:25:37.893Z,20.83
2022-12-17T12:28:45.542Z,20.97
2022-12-17T12:31:49.458Z,20.83
2022-12-17T12:34:44.561Z,20.00
2022-12-17T12:37:33.364Z,19.63
2022-12-17T12:40:42.472Z,18.83
2022-12-17T12:43:45.916Z,18.03
2022-12-17T12:47:06.893Z,16.67
2022-12-17T12:50:21.837Z,18.17
2022-12-17T12:53:07.912Z,17.57
2022-12-17T12:56:01.367Z,19.67
2022-12-17T12:58:54.123Z,17.53
2022-12-17T13:01:53.523Z,18.60
2022-12-17T13:04:53.713Z,18.47
2022-12-17T13:07:31.481Z,19.03
2022-12-17T13:09:59.778Z,18.83
2022-12-17T13:12:40.226Z,20.57
2022-12-17T13:15:07.474Z,19.60
2022-12-17T13:17:38.028Z,20.13
2022-12-17T13:20:22.704Z,20.30
2022-12-17T13:23:11.549Z,21.33
2022-12-17T13:25:39.129Z,27.37
2022-12-17T13:28:26.385Z,19.93
2022-12-17T13:31:13.549Z,19.70
2022-12-17T13:34:03.403Z,19.77
2022-12-17T13:36:51.152Z,21.93
2022-12-17T13:39:52.405Z,22.23
2022-12-17T13:42:30.713Z,21.77
2022-12-17T13:44:59.288Z,20.73
2022-12-17T13:47:34.655Z,21.57
2022-12-17T13:50:36.601Z,19.53
2022-12-17T13:53:15.872Z,22.30
2022-12-17T13:55:51.577Z,22.60
2022-12-17T13:58:32.455Z,23.30
2022-12-17T14:01:12.165Z,22.33
2022-12-17T14:04:05.265Z,22.60
2022-12-17T14:06:38.859Z,22.60
2022-12-17T14:09:06.444Z,21.57
2022-12-17T14:11:52.628Z,24.37
2022-12-17T14:14:34.444Z,21.80
2022-12-17T14:17:02.413Z,23.93
2022-12-17T14:19:32.080Z,26.10
2022-12-17T14:22:02.596Z,26.33
2022-12-17T14:24:30.348Z,28.77
2022-12-17T14:27:00.842Z,28.83
2022-12-17T14:29:31.087Z,30.43
2022-12-17T14:32:16.999Z,28.40
2022-12-17T14:34:44.397Z,29.30
2022-12-17T14:37:21.210Z,28.37
2022-12-17T14:39:49.149Z,26.10
2022-12-17T14:42:27.233Z,30.07
2022-12-17T14:45:18.858Z,26.80
2022-12-17T14:48:15.889Z,30.83
2022-12-17T14:50:43.085Z,33.77
2022-12-17T14:53:27.503Z,32.83
2022-12-17T14:55:59.280Z,32.17
2022-12-17T14:58:27.737Z,29.57
2022-12-17T15:01:07.553Z,30.07
2022-12-17T15:03:43.805Z,30.13
2022-12-17T15:06:17.340Z,29.23
2022-12-17T15:08:53.584Z,32.93
2022-12-17T15:11:25.383Z,30.97
2022-12-17T15:13:56.391Z,30.77
2022-12-17T15:16:24.378Z,27.77
2022-12-17T15:18:51.725Z,26.80
2022-12-17T15:21:20.339Z,33.50
2022-12-17T15:23:51.703Z,28.47
2022-12-17T15:26:19.967Z,28.67
2022-12-17T15:28:47.671Z,28.63
2022-12-17T15:31:17.794Z,29.33
2022-12-17T15:33:47.862Z,28.60
2022-12-17T15:36:15.703Z,27.97
2022-12-17T15:38:43.053Z,29.97
2022-12-17T15:41:28.633Z,28.10
2022-12-17T15:43:55.711Z,28.93
2022-12-17T15:46:23.232Z,28.37
2022-12-17T15:48:51.021Z,29.27
2022-12-17T15:51:21.037Z,28.27
2022-12-17T15:53:48.527Z,30.30
2022-12-17T15:56:24.364Z,32.40
2022-12-17T15:58:52.161Z,33.50
2022-12-17T16:01:20.269Z,29.50
2022-12-17T16:03:47.610Z,30.20
2022-12-17T16:06:14.723Z,31.23
2022-12-17T16:08:41.847Z,32.07
2022-12-17T16:11:10.962Z,30.77
2022-12-17T16:13:39.286Z,30.30
2022-12-17T16:16:07.837Z,32.83
2022-12-17T16:18:38.951Z,36.03
2022-12-17T16:21:08.536Z,30.40
2022-12-17T16:23:36.785Z,38.03
2022-12-17T16:26:06.638Z,35.83
2022-12-17T16:28:35.462Z,32.33
2022-12-17T16:31:10.733Z,32.13
2022-12-17T16:33:41.961Z,30.67
2022-12-17T16:36:13.745Z,32.80
2022-12-17T16:38:53.188Z,36.13
2022-12-17T16:41:22.198Z,34.23
2022-12-17T16:43:50.046Z,33.60
2022-12-17T16:46:30.783Z,35.20
2022-12-17T16:49:04.354Z,30.30
2022-12-17T16:51:31.936Z,31.77
2022-12-17T16:53:59.960Z,38.03
2022-12-17T16:56:28.625Z,33.77
2022-12-17T16:58:56.503Z,30.23
2022-12-17T17:01:27.211Z,29.87
2022-12-17T17:04:01.679Z,28.93
2022-12-17T17:06:55.339Z,29.07
2022-12-17T17:09:23.844Z,29.60
2022-12-17T17:11:52.266Z,32.20
2022-12-17T17:14:19.945Z,29.80
2022-12-17T17:16:46.973Z,33.07
2022-12-17T17:19:14.067Z,32.50
2022-12-17T17:21:48.518Z,32.00
2022-12-17T17:24:21.177Z,29.83
2022-12-17T17:26:49.934Z,31.20
2022-12-17T17:29:17.361Z,28.27
2022-12-17T17:34:32.599Z,31.60
2022-12-17T17:36:59.900Z,29.07
2022-12-17T17:39:27.420Z,29.93
2022-12-17T17:41:54.642Z,27.80
2022-12-17T17:44:21.701Z,28.43
2022-12-17T17:46:48.880Z,31.53
2022-12-17T17:49:16.334Z,30.00
2022-12-17T17:54:31.854Z,32.20
2022-12-17T17:56:59.160Z,28.17
2022-12-17T17:59:32.888Z,30.30
2022-12-17T18:02:02.590Z,28.83
2022-12-17T18:04:30.840Z,26.90
2022-12-17T18:09:45.244Z,25.57
2022-12-17T18:12:31.269Z,29.80
2022-12-17T18:15:16.438Z,31.87
2022-12-17T18:18:14.986Z,26.40
2022-12-17T18:20:42.207Z,30.07
2022-12-17T18:23:09.415Z,25.67
2022-12-17T18:25:37.908Z,26.77
2022-12-17T18:28:05.299Z,26.13
2022-12-17T18:30:32.416Z,28.17
2022-12-17T18:32:59.563Z,24.03
2022-12-17T18:35:27.455Z,26.30
2022-12-17T18:37:54.533Z,24.60
2022-12-17T18:40:21.606Z,27.63
2022-12-17T18:43:06.914Z,25.10
2022-12-17T18:45:38.176Z,26.97
2022-12-17T18:48:06.041Z,27.67
2022-12-17T18:50:34.934Z,27.47
2022-12-17T18:53:02.461Z,25.40
2022-12-17T18:55:29.661Z,30.17
2022-12-17T18:57:56.970Z,25.83
2022-12-17T19:00:24.048Z,26.07
2022-12-17T19:02:51.169Z,24.80
2022-12-17T19:05:18.653Z,22.83
2022-12-17T19:07:46.054Z,20.27
2022-12-17T19:10:13.112Z,25.30
2022-12-17T19:12:40.344Z,21.73
2022-12-17T19:15:08.542Z,22.27
2022-12-17T19:17:35.910Z,23.80
2022-12-17T19:20:02.982Z,22.97
2022-12-17T19:22:30.216Z,24.00
2022-12-17T19:24:57.573Z,19.80
2022-12-17T19:27:25.476Z,21.10
2022-12-17T19:29:52.557Z,26.87
2022-12-17T19:32:19.687Z,20.23
2022-12-17T19:34:46.940Z,25.40
2022-12-17T19:37:14.153Z,24.37
2022-12-17T19:39:41.277Z,23.03
2022-12-17T19:42:24.896Z,20.90
2022-12-17T19:44:56.602Z,22.03
2022-12-17T19:47:24.521Z,22.17
2022-12-17T19:49:51.733Z,23.23
2022-12-17T19:52:18.947Z,21.23
2022-12-17T19:54:46.123Z,21.63
2022-12-17T19:57:13.280Z,21.83
2022-12-17T19:59:40.337Z,23.27
2022-12-17T20:02:09.616Z,20.87
2022-12-17T20:04:37.092Z,20.97
2022-12-17T20:07:04.251Z,24.77
2022-12-17T20:09:31.321Z,22.27
2022-12-17T20:11:58.474Z,21.03
2022-12-17T20:14:29.202Z,26.43
2022-12-17T20:16:59.751Z,24.37
2022-12-17T20:19:33.253Z,21.50
2022-12-17T20:22:04.433Z,23.00
2022-12-17T20:24:32.319Z,26.17
2022-12-17T20:27:00.414Z,22.03
2022-12-17T20:29:28.141Z,20.07
2022-12-17T20:31:55.856Z,22.83
2022-12-17T20:34:24.351Z,23.77
2022-12-17T20:36:52.526Z,20.97
2022-12-17T20:39:26.165Z,22.93
2022-12-17T20:41:54.048Z,27.93
2022-12-17T20:44:21.121Z,20.60
2022-12-17T20:46:48.219Z,20.40
2022-12-17T20:49:15.537Z,19.20
2022-12-17T20:51:42.789Z,22.37
2022-12-17T20:54:10.813Z,21.80
2022-12-17T20:56:39.575Z,21.93
2022-12-17T20:59:11.663Z,22.43
2022-12-17T21:01:40.059Z,26.50
2022-12-17T21:04:07.882Z,19.60
2022-12-17T21:06:42.198Z,20.37
2022-12-17T21:09:10.013Z,21.80
2022-12-17T21:11:39.312Z,20.73
2022-12-17T21:14:13.843Z,27.63
2022-12-17T21:16:42.679Z,20.90
2022-12-17T21:19:13.963Z,22.60
2022-12-17T21:21:41.087Z,18.57
2022-12-17T21:24:09.185Z,20.07
2022-12-17T21:26:40.823Z,21.73
2022-12-17T21:29:09.964Z,22.10
2022-12-17T21:31:44.026Z,19.37
2022-12-17T21:34:21.900Z,21.80
2022-12-17T21:36:50.781Z,20.07
2022-12-17T21:39:20.063Z,21.77
2022-12-17T21:42:07.743Z,20.97
2022-12-17T21:44:36.098Z,22.10
2022-12-17T21:47:03.890Z,18.80
2022-12-17T21:49:31.827Z,25.47
2022-12-17T21:52:00.229Z,20.30
2022-12-17T21:54:27.964Z,20.37
2022-12-17T21:56:55.247Z,20.80
2022-12-17T21:59:22.654Z,16.43
2022-12-17T22:01:51.712Z,20.03
2022-12-17T22:04:19.555Z,20.43
2022-12-17T22:06:57.227Z,21.40
2022-12-17T22:09:41.503Z,20.57
2022-12-17T22:12:40.687Z,16.30
2022-12-17T22:15:11.176Z,18.33
2022-12-17T22:17:40.547Z,17.93
2022-12-17T22:20:09.461Z,18.00
2022-12-17T22:22:36.892Z,21.37
2022-12-17T22:25:08.248Z,17.20
2022-12-17T22:27:39.924Z,17.60
2022-12-17T22:30:32.044Z,17.03
2022-12-17T22:32:59.737Z,20.67
2022-12-17T22:37:23.682Z,20.20
2022-12-17T22:43:38.234Z,19.47
2022-12-17T22:44:34.437Z,22.33
2022-12-17T22:44:51.775Z,16.17
2022-12-17T22:47:08.346Z,17.87
2022-12-17T22:49:36.085Z,14.10
2022-12-17T22:52:03.512Z,17.67
2022-12-17T22:54:31.695Z,21.40
2022-12-17T22:57:36.162Z,15.67
2022-12-17T22:59:47.049Z,18.80
2022-12-17T23:02:14.830Z,20.50
2022-12-17T23:04:43.018Z,17.57
2022-12-17T23:07:10.871Z,19.83
2022-12-17T23:09:38.339Z,15.83
2022-12-17T23:12:25.561Z,18.00
2022-12-17T23:14:53.218Z,12.70
2022-12-17T23:17:22.916Z,12.93
2022-12-17T23:19:50.412Z,13.60
2022-12-17T23:22:22.097Z,15.87
2022-12-17T23:24:50.876Z,19.93
2022-12-17T23:27:18.370Z,18.27
2022-12-17T23:29:47.047Z,18.37
2022-12-17T23:32:16.985Z,17.17
2022-12-17T23:34:45.742Z,14.63
2022-12-17T23:37:13.961Z,17.90
2022-12-17T23:39:41.533Z,17.80
2022-12-17T23:42:09.139Z,16.60
2022-12-17T23:44:36.433Z,18.93
2022-12-17T23:47:04.699Z,20.30
2022-12-17T23:49:32.116Z,18.80
2022-12-17T23:51:59.569Z,16.67
2022-12-17T23:54:27.003Z,21.50
2022-12-17T23:56:55.253Z,19.03
2022-12-17T23:59:23.785Z,20.87
